Clintonville, New York
Current Conditions -  °F | °C
As of 3:53 AM on Sunday 26 Oct 2014 (Local Time) from KPBG Reporting Station
Overcast Overcast  
Wind Chill: 47°   Ceiling: 8500
Heat Index: 47°   Visibility: 10mi
Dew Point: 43°   Wind: 0mph
Humidity: 86%   Direction: NA
Pressure: 29.42"   Gusts: NA
Location:  44.5023°N, 73.5719°W
Report Text: KPBG 260753Z AUTO 00000KT 10SM OVC085 08/06 A2942 RMK AO2 SLP962 T00830061
Loading
Personal Weather Stations






























Interactive Weather Map
Tropical Storm Tracking
New forecast layout! Learn more

10-Day Weather Forecast

Advertisements
Track Severe Weather on mobile